ADDS TAF Board (Experimental) INFO Settings

IDs: Format: Expanded Condensed

KEWR - Newark Intl, NJ, US

Issued at 1935 UTC 19 Apr 2015
Updated at: 2251 UTC 19 Apr 2015
Time2151Z 19/23Z 20/00Z 20/01Z 20/02Z 20/03Z 20/04Z 20/05Z 20/06Z 20/07Z 20/08Z 20/09Z 20/10Z 20/11Z
Type OBS PRVL PRVL PRVL PRVL PRVL PRVL PRVL PRVL PRVL PRVL PRVL PRVL PRVL
VIS 10 >6 >6 >6 >6 >6 >6 >6 >6 6 6 6 6 6
CIG 200 250 200 200 200 120 120 120 120 25 25 25 25 25
Cover BKN BKN BKN BKN BKN OVC OVC OVC OVC OVC OVC OVC OVC OVC
FltCat VFR VFR VFR VFR VFR VFR VFR VFR VFR MVFR MVFR MVFR MVFR MVFR
WX -- -- -- -- -- -- -- -- -- -RA -RA -RA -RA -RA
WDir 140 140 110 110 110 80 80 80 80 100 100 100 100 100
WSpd 9 11 9 9 9 11 11 11 11 14 14 14 14 14
WGst 15 -- -- -- -- -- -- -- -- 19 19 19 19 19
R04/22
XWnd -8 -10 -9 -9 -9 -9 -9 -9 -9 -13 -13 -13 -13 -13
XGst -14 -- -- -- -- -- -- -- -- -18 -18 -18 -18 -18
HWnd -4 -4 1 1 1 6 6 6 6 4 4 4 4 4
HGst -6 -- -- -- -- -- -- -- -- 5 5 5 5 5
R11/29
XWnd -6 -8 -2 -2 -2 3 3 3 3 -1 -1 -1 -1 -1
XGst -11 -- -- -- -- -- -- -- -- -2 -2 -2 -2 -2
HWnd 6 8 9 9 9 11 11 11 11 14 14 14 14 14
HGst 11 -- -- -- -- -- -- -- -- 19 19 19 19 19

NOTE: TEMPO conditions in [brackets]. Keep in mind TEMPO conditions might be better (lower impact) than prevailing conditions.

Raw TAF
KEWR 191935Z 1920/2024 14011KT P6SM BKN250
  FM200000 11009KT P6SM BKN200
  FM200300 08011KT P6SM OVC120
  FM200700 10014G19KT 6SM -RA BKN025 OVC100
  FM201300 11019G24KT 3SM -RA BR OVC010 WS020/13050KT
  FM201700 12013G18KT 1SM RA BR OVC007 WS020/16040KT
  FM202000 12008KT 2SM -DZ BR OVC007


Raw METAR
KEWR 192151Z 14009G15KT 10SM FEW120 BKN200 BKN250 10/02 A3022 RMK AO2 SLP231 FU PLUME N DRFTG W T01000022
KEWR 192051Z 13008KT 10SM SCT200 BKN250 11/02 A3021 RMK AO2 SLP228 T01110017 55011
KEWR 191951Z 12011G18KT 10SM FEW200 BKN250 12/01 A3020 RMK AO2 SLP226 T01170011

METAR Board
Radar Display
Forecast Discussion

TAF Board Legend

Potential Impact
Threat None Slight Moderate High
Visibility (sm) ≥5.1 5.1>X≥3 3>X≥1 <1
Ceiling (100 ft) ≥30.1 30.1>X≥10 10>X≥5 <5
Wind Speed (kt) <10 10≤X<20 20≤X<30 ≥30
Wind Gust (kt) <15 15≤X<25 25≤X<35 ≥35
Weather No Wx Reported VCTS,-TS,-FZRA,SN TS,FZRA +TS,+FZRA,+SN